sensor_id;sensor_type;location;lat;lon;timestamp;P1;durP1;ratioP1;P2;durP2;ratioP2
70183;SDS011;57554;51.546;6.776;2023-09-19T00:01:20;9.85;;;2.17;;
70183;SDS011;57554;51.546;6.776;2023-09-19T00:03:45;11.50;;;2.30;;
70183;SDS011;57554;51.546;6.776;2023-09-19T00:06:11;14.15;;;2.17;;
70183;SDS011;57554;51.546;6.776;2023-09-19T00:08:40;12.60;;;2.10;;
70183;SDS011;57554;51.546;6.776;2023-09-19T00:11:09;8.77;;;2.05;;
70183;SDS011;57554;51.546;6.776;2023-09-19T00:13:36;11.77;;;2.30;;
70183;SDS011;57554;51.546;6.776;2023-09-19T00:16:07;8.32;;;1.75;;
70183;SDS011;57554;51.546;6.776;2023-09-19T00:18:35;11.55;;;2.13;;
70183;SDS011;57554;51.546;6.776;2023-09-19T00:21:03;8.43;;;1.70;;
70183;SDS011;57554;51.546;6.776;2023-09-19T00:23:30;11.15;;;2.03;;
70183;SDS011;57554;51.546;6.776;2023-09-19T00:26:00;12.25;;;2.40;;
70183;SDS011;57554;51.546;6.776;2023-09-19T00:28:26;9.93;;;2.28;;
70183;SDS011;57554;51.546;6.776;2023-09-19T00:30:52;8.73;;;1.85;;
70183;SDS011;57554;51.546;6.776;2023-09-19T00:33:20;11.55;;;2.20;;
70183;SDS011;57554;51.546;6.776;2023-09-19T00:35:46;7.68;;;2.10;;
70183;SDS011;57554;51.546;6.776;2023-09-19T00:38:19;13.18;;;2.17;;
70183;SDS011;57554;51.546;6.776;2023-09-19T00:40:47;8.77;;;2.30;;
70183;SDS011;57554;51.546;6.776;2023-09-19T00:43:13;14.23;;;1.98;;
70183;SDS011;57554;51.546;6.776;2023-09-19T00:45:42;10.77;;;2.13;;
70183;SDS011;57554;51.546;6.776;2023-09-19T00:48:09;11.65;;;2.63;;
70183;SDS011;57554;51.546;6.776;2023-09-19T00:50:35;9.35;;;2.20;;
70183;SDS011;57554;51.546;6.776;2023-09-19T00:53:01;12.50;;;2.28;;
70183;SDS011;57554;51.546;6.776;2023-09-19T00:55:34;11.68;;;2.28;;
70183;SDS011;57554;51.546;6.776;2023-09-19T00:58:02;12.50;;;2.30;;
70183;SDS011;57554;51.546;6.776;2023-09-19T01:00:28;10.05;;;2.00;;
70183;SDS011;57554;51.546;6.776;2023-09-19T01:02:54;12.60;;;2.47;;
70183;SDS011;57554;51.546;6.776;2023-09-19T01:05:20;11.88;;;2.45;;
70183;SDS011;57554;51.546;6.776;2023-09-19T01:07:46;11.52;;;2.35;;
70183;SDS011;57554;51.546;6.776;2023-09-19T01:10:15;9.18;;;2.20;;
70183;SDS011;57554;51.546;6.776;2023-09-19T01:12:54;16.33;;;2.30;;
70183;SDS011;57554;51.546;6.776;2023-09-19T01:15:59;12.70;;;2.20;;
70183;SDS011;57554;51.546;6.776;2023-09-19T01:21:35;13.15;;;2.20;;
70183;SDS011;57554;51.546;6.776;2023-09-19T01:24:55;11.50;;;2.70;;
70183;SDS011;57554;51.546;6.776;2023-09-19T01:30:13;10.35;;;2.25;;
70183;SDS011;57554;51.546;6.776;2023-09-19T01:32:42;15.07;;;2.40;;
70183;SDS011;57554;51.546;6.776;2023-09-19T01:35:08;10.70;;;2.13;;
70183;SDS011;57554;51.546;6.776;2023-09-19T01:37:37;9.25;;;2.95;;
70183;SDS011;57554;51.546;6.776;2023-09-19T01:40:07;11.63;;;2.47;;
70183;SDS011;57554;51.546;6.776;2023-09-19T01:42:45;11.98;;;2.70;;
70183;SDS011;57554;51.546;6.776;2023-09-19T01:51:07;12.43;;;2.28;;
70183;SDS011;57554;51.546;6.776;2023-09-19T01:53:39;13.35;;;2.30;;
70183;SDS011;57554;51.546;6.776;2023-09-19T01:56:11;16.25;;;2.50;;
70183;SDS011;57554;51.546;6.776;2023-09-19T01:58:48;11.95;;;1.92;;
70183;SDS011;57554;51.546;6.776;2023-09-19T02:01:16;11.43;;;2.78;;
70183;SDS011;57554;51.546;6.776;2023-09-19T02:03:50;14.90;;;2.30;;
70183;SDS011;57554;51.546;6.776;2023-09-19T02:06:16;9.57;;;2.55;;
70183;SDS011;57554;51.546;6.776;2023-09-19T02:08:43;12.95;;;2.42;;
70183;SDS011;57554;51.546;6.776;2023-09-19T02:11:10;11.25;;;1.92;;
70183;SDS011;57554;51.546;6.776;2023-09-19T02:13:38;10.05;;;2.13;;
70183;SDS011;57554;51.546;6.776;2023-09-19T02:16:05;12.07;;;2.10;;
70183;SDS011;57554;51.546;6.776;2023-09-19T02:18:32;10.02;;;2.28;;
70183;SDS011;57554;51.546;6.776;2023-09-19T02:21:00;14.48;;;2.13;;
70183;SDS011;57554;51.546;6.776;2023-09-19T02:23:29;12.05;;;2.47;;
70183;SDS011;57554;51.546;6.776;2023-09-19T02:25:55;12.90;;;2.60;;
70183;SDS011;57554;51.546;6.776;2023-09-19T02:28:28;7.72;;;2.20;;
70183;SDS011;57554;51.546;6.776;2023-09-19T02:30:55;14.48;;;2.45;;
70183;SDS011;57554;51.546;6.776;2023-09-19T02:33:21;12.32;;;2.30;;
70183;SDS011;57554;51.546;6.776;2023-09-19T02:35:47;12.48;;;2.35;;
70183;SDS011;57554;51.546;6.776;2023-09-19T02:38:12;14.75;;;2.15;;
70183;SDS011;57554;51.546;6.776;2023-09-19T02:40:39;12.35;;;2.30;;
70183;SDS011;57554;51.546;6.776;2023-09-19T02:43:05;12.57;;;2.80;;
70183;SDS011;57554;51.546;6.776;2023-09-19T02:45:33;10.90;;;2.30;;
70183;SDS011;57554;51.546;6.776;2023-09-19T02:47:59;14.55;;;2.20;;
70183;SDS011;57554;51.546;6.776;2023-09-19T02:50:25;16.58;;;2.20;;
70183;SDS011;57554;51.546;6.776;2023-09-19T02:52:51;13.02;;;2.13;;
70183;SDS011;57554;51.546;6.776;2023-09-19T02:55:16;14.90;;;2.45;;
70183;SDS011;57554;51.546;6.776;2023-09-19T02:57:53;10.48;;;2.15;;
70183;SDS011;57554;51.546;6.776;2023-09-19T03:00:22;9.23;;;1.90;;
70183;SDS011;57554;51.546;6.776;2023-09-19T03:02:49;14.15;;;2.17;;
70183;SDS011;57554;51.546;6.776;2023-09-19T03:05:17;10.50;;;2.00;;
70183;SDS011;57554;51.546;6.776;2023-09-19T03:07:43;10.80;;;1.88;;
70183;SDS011;57554;51.546;6.776;2023-09-19T03:10:10;12.68;;;2.28;;
70183;SDS011;57554;51.546;6.776;2023-09-19T03:12:36;10.68;;;1.92;;
70183;SDS011;57554;51.546;6.776;2023-09-19T03:15:03;11.20;;;2.08;;
70183;SDS011;57554;51.546;6.776;2023-09-19T03:17:29;12.65;;;2.20;;
70183;SDS011;57554;51.546;6.776;2023-09-19T03:19:55;10.80;;;2.25;;
70183;SDS011;57554;51.546;6.776;2023-09-19T03:22:22;19.63;;;2.67;;
70183;SDS011;57554;51.546;6.776;2023-09-19T03:24:49;13.27;;;2.03;;
70183;SDS011;57554;51.546;6.776;2023-09-19T03:27:15;9.32;;;2.50;;
70183;SDS011;57554;51.546;6.776;2023-09-19T03:29:41;9.68;;;2.03;;
70183;SDS011;57554;51.546;6.776;2023-09-19T03:32:07;16.77;;;2.25;;
70183;SDS011;57554;51.546;6.776;2023-09-19T03:34:36;10.38;;;2.03;;
70183;SDS011;57554;51.546;6.776;2023-09-19T03:37:05;12.15;;;1.73;;
70183;SDS011;57554;51.546;6.776;2023-09-19T03:39:31;11.32;;;2.15;;
70183;SDS011;57554;51.546;6.776;2023-09-19T03:41:57;13.43;;;2.50;;
70183;SDS011;57554;51.546;6.776;2023-09-19T03:44:23;12.65;;;1.92;;
70183;SDS011;57554;51.546;6.776;2023-09-19T03:46:48;9.35;;;1.67;;
70183;SDS011;57554;51.546;6.776;2023-09-19T03:49:14;10.32;;;2.03;;
70183;SDS011;57554;51.546;6.776;2023-09-19T03:51:39;10.82;;;2.10;;
70183;SDS011;57554;51.546;6.776;2023-09-19T03:54:06;9.95;;;1.80;;
70183;SDS011;57554;51.546;6.776;2023-09-19T03:56:32;13.07;;;2.20;;
70183;SDS011;57554;51.546;6.776;2023-09-19T03:58:58;13.18;;;1.95;;
70183;SDS011;57554;51.546;6.776;2023-09-19T04:01:23;9.63;;;1.90;;
70183;SDS011;57554;51.546;6.776;2023-09-19T04:03:49;8.02;;;1.63;;
70183;SDS011;57554;51.546;6.776;2023-09-19T04:06:16;10.35;;;1.92;;
70183;SDS011;57554;51.546;6.776;2023-09-19T04:08:43;8.48;;;1.92;;
70183;SDS011;57554;51.546;6.776;2023-09-19T04:11:09;10.55;;;1.88;;
70183;SDS011;57554;51.546;6.776;2023-09-19T04:13:35;23.55;;;2.60;;
70183;SDS011;57554;51.546;6.776;2023-09-19T04:16:01;12.35;;;2.22;;
70183;SDS011;57554;51.546;6.776;2023-09-19T04:18:28;9.77;;;2.10;;
70183;SDS011;57554;51.546;6.776;2023-09-19T04:20:57;11.45;;;3.08;;
70183;SDS011;57554;51.546;6.776;2023-09-19T04:23:23;13.05;;;2.45;;
70183;SDS011;57554;51.546;6.776;2023-09-19T04:25:48;12.68;;;2.10;;
70183;SDS011;57554;51.546;6.776;2023-09-19T04:28:14;10.20;;;2.20;;
70183;SDS011;57554;51.546;6.776;2023-09-19T04:30:40;14.73;;;2.75;;
70183;SDS011;57554;51.546;6.776;2023-09-19T04:33:06;9.10;;;1.88;;
70183;SDS011;57554;51.546;6.776;2023-09-19T04:35:32;11.27;;;2.55;;
70183;SDS011;57554;51.546;6.776;2023-09-19T04:37:58;12.23;;;2.50;;
70183;SDS011;57554;51.546;6.776;2023-09-19T04:40:23;11.40;;;2.10;;
70183;SDS011;57554;51.546;6.776;2023-09-19T04:42:55;16.38;;;2.50;;
70183;SDS011;57554;51.546;6.776;2023-09-19T04:45:25;11.75;;;2.25;;
70183;SDS011;57554;51.546;6.776;2023-09-19T04:47:51;17.52;;;2.55;;
70183;SDS011;57554;51.546;6.776;2023-09-19T04:50:18;22.23;;;2.92;;
70183;SDS011;57554;51.546;6.776;2023-09-19T04:52:44;12.65;;;2.30;;
70183;SDS011;57554;51.546;6.776;2023-09-19T04:55:18;13.73;;;2.35;;
70183;SDS011;57554;51.546;6.776;2023-09-19T04:57:47;17.35;;;2.88;;
70183;SDS011;57554;51.546;6.776;2023-09-19T05:00:14;13.25;;;2.05;;
70183;SDS011;57554;51.546;6.776;2023-09-19T05:02:42;16.58;;;2.38;;
70183;SDS011;57554;51.546;6.776;2023-09-19T05:05:08;11.50;;;2.20;;
70183;SDS011;57554;51.546;6.776;2023-09-19T05:07:41;14.70;;;2.60;;
70183;SDS011;57554;51.546;6.776;2023-09-19T05:10:08;15.32;;;2.20;;
70183;SDS011;57554;51.546;6.776;2023-09-19T05:12:35;17.00;;;2.53;;
70183;SDS011;57554;51.546;6.776;2023-09-19T05:15:04;10.25;;;2.30;;
70183;SDS011;57554;51.546;6.776;2023-09-19T05:17:32;9.52;;;2.03;;
70183;SDS011;57554;51.546;6.776;2023-09-19T05:19:57;11.95;;;1.95;;
70183;SDS011;57554;51.546;6.776;2023-09-19T05:22:23;9.77;;;2.20;;
70183;SDS011;57554;51.546;6.776;2023-09-19T05:24:52;10.00;;;2.17;;
70183;SDS011;57554;51.546;6.776;2023-09-19T05:27:17;13.73;;;2.65;;
70183;SDS011;57554;51.546;6.776;2023-09-19T05:29:44;11.73;;;2.28;;
70183;SDS011;57554;51.546;6.776;2023-09-19T05:32:10;12.05;;;2.17;;
70183;SDS011;57554;51.546;6.776;2023-09-19T05:34:36;11.07;;;2.40;;
70183;SDS011;57554;51.546;6.776;2023-09-19T05:37:02;15.50;;;2.55;;
70183;SDS011;57554;51.546;6.776;2023-09-19T05:39:28;13.18;;;2.45;;
70183;SDS011;57554;51.546;6.776;2023-09-19T05:41:53;12.27;;;2.17;;
70183;SDS011;57554;51.546;6.776;2023-09-19T05:44:20;17.63;;;2.28;;
70183;SDS011;57554;51.546;6.776;2023-09-19T05:46:48;13.10;;;2.30;;
70183;SDS011;57554;51.546;6.776;2023-09-19T05:49:14;13.32;;;1.92;;
70183;SDS011;57554;51.546;6.776;2023-09-19T05:51:40;13.90;;;2.58;;
70183;SDS011;57554;51.546;6.776;2023-09-19T05:54:06;11.98;;;2.40;;
70183;SDS011;57554;51.546;6.776;2023-09-19T05:56:31;12.50;;;2.40;;
70183;SDS011;57554;51.546;6.776;2023-09-19T05:58:57;12.65;;;2.72;;
70183;SDS011;57554;51.546;6.776;2023-09-19T06:01:22;13.00;;;2.30;;
70183;SDS011;57554;51.546;6.776;2023-09-19T06:03:48;13.32;;;2.22;;
70183;SDS011;57554;51.546;6.776;2023-09-19T06:06:14;11.38;;;2.30;;
70183;SDS011;57554;51.546;6.776;2023-09-19T06:08:39;9.88;;;2.40;;
70183;SDS011;57554;51.546;6.776;2023-09-19T06:11:05;14.82;;;2.67;;
70183;SDS011;57554;51.546;6.776;2023-09-19T06:13:34;14.30;;;2.47;;
70183;SDS011;57554;51.546;6.776;2023-09-19T06:16:00;10.35;;;1.90;;
70183;SDS011;57554;51.546;6.776;2023-09-19T06:18:30;10.35;;;2.05;;
70183;SDS011;57554;51.546;6.776;2023-09-19T06:20:58;18.33;;;2.97;;
70183;SDS011;57554;51.546;6.776;2023-09-19T06:23:24;12.27;;;2.25;;
70183;SDS011;57554;51.546;6.776;2023-09-19T06:25:52;14.60;;;2.83;;
70183;SDS011;57554;51.546;6.776;2023-09-19T06:28:18;9.23;;;2.35;;
70183;SDS011;57554;51.546;6.776;2023-09-19T06:30:49;14.27;;;2.40;;
70183;SDS011;57554;51.546;6.776;2023-09-19T06:33:14;13.15;;;2.58;;
70183;SDS011;57554;51.546;6.776;2023-09-19T06:35:40;12.43;;;2.47;;
70183;SDS011;57554;51.546;6.776;2023-09-19T06:38:07;15.48;;;2.85;;
70183;SDS011;57554;51.546;6.776;2023-09-19T06:40:33;15.55;;;2.08;;
70183;SDS011;57554;51.546;6.776;2023-09-19T06:42:59;10.35;;;1.88;;
70183;SDS011;57554;51.546;6.776;2023-09-19T06:45:27;17.02;;;3.25;;
70183;SDS011;57554;51.546;6.776;2023-09-19T06:47:53;13.55;;;2.25;;
70183;SDS011;57554;51.546;6.776;2023-09-19T06:50:22;13.27;;;2.22;;
70183;SDS011;57554;51.546;6.776;2023-09-19T06:52:52;13.27;;;2.20;;
70183;SDS011;57554;51.546;6.776;2023-09-19T06:55:20;13.68;;;2.85;;
70183;SDS011;57554;51.546;6.776;2023-09-19T06:57:49;10.18;;;2.25;;
70183;SDS011;57554;51.546;6.776;2023-09-19T07:00:16;8.27;;;2.20;;
70183;SDS011;57554;51.546;6.776;2023-09-19T07:05:22;11.32;;;2.45;;
70183;SDS011;57554;51.546;6.776;2023-09-19T07:07:48;9.52;;;2.38;;
70183;SDS011;57554;51.546;6.776;2023-09-19T07:10:13;13.88;;;2.42;;
70183;SDS011;57554;51.546;6.776;2023-09-19T07:12:39;15.40;;;2.55;;
70183;SDS011;57554;51.546;6.776;2023-09-19T07:15:06;13.75;;;2.35;;
70183;SDS011;57554;51.546;6.776;2023-09-19T07:17:32;12.55;;;2.10;;
70183;SDS011;57554;51.546;6.776;2023-09-19T07:19:58;15.95;;;2.60;;
70183;SDS011;57554;51.546;6.776;2023-09-19T07:22:24;12.55;;;2.10;;
70183;SDS011;57554;51.546;6.776;2023-09-19T07:24:51;13.43;;;2.40;;
70183;SDS011;57554;51.546;6.776;2023-09-19T07:27:17;12.07;;;2.50;;
70183;SDS011;57554;51.546;6.776;2023-09-19T07:29:43;20.70;;;2.78;;
70183;SDS011;57554;51.546;6.776;2023-09-19T07:32:09;13.55;;;2.72;;
70183;SDS011;57554;51.546;6.776;2023-09-19T07:34:35;15.85;;;2.50;;
70183;SDS011;57554;51.546;6.776;2023-09-19T07:37:01;11.40;;;2.40;;
70183;SDS011;57554;51.546;6.776;2023-09-19T07:39:27;14.95;;;2.28;;
70183;SDS011;57554;51.546;6.776;2023-09-19T07:41:53;12.70;;;2.38;;
70183;SDS011;57554;51.546;6.776;2023-09-19T07:44:19;12.35;;;2.22;;
70183;SDS011;57554;51.546;6.776;2023-09-19T07:46:45;10.25;;;2.30;;
70183;SDS011;57554;51.546;6.776;2023-09-19T07:49:10;13.35;;;2.70;;
70183;SDS011;57554;51.546;6.776;2023-09-19T07:51:36;12.98;;;2.25;;
70183;SDS011;57554;51.546;6.776;2023-09-19T07:54:01;14.30;;;2.67;;
70183;SDS011;57554;51.546;6.776;2023-09-19T07:56:27;11.07;;;2.50;;
70183;SDS011;57554;51.546;6.776;2023-09-19T07:58:53;9.90;;;2.35;;
70183;SDS011;57554;51.546;6.776;2023-09-19T08:01:19;12.55;;;2.50;;
70183;SDS011;57554;51.546;6.776;2023-09-19T08:03:44;15.35;;;2.50;;
70183;SDS011;57554;51.546;6.776;2023-09-19T08:06:10;11.52;;;2.22;;
70183;SDS011;57554;51.546;6.776;2023-09-19T08:08:36;12.55;;;2.65;;
70183;SDS011;57554;51.546;6.776;2023-09-19T08:11:03;11.57;;;2.28;;
70183;SDS011;57554;51.546;6.776;2023-09-19T08:13:36;11.68;;;2.10;;
70183;SDS011;57554;51.546;6.776;2023-09-19T08:16:08;13.65;;;2.63;;
70183;SDS011;57554;51.546;6.776;2023-09-19T08:18:34;10.00;;;2.30;;
70183;SDS011;57554;51.546;6.776;2023-09-19T08:20:59;13.85;;;2.45;;
70183;SDS011;57554;51.546;6.776;2023-09-19T08:23:25;19.48;;;2.65;;
70183;SDS011;57554;51.546;6.776;2023-09-19T08:25:55;21.58;;;3.05;;
70183;SDS011;57554;51.546;6.776;2023-09-19T08:28:21;12.13;;;1.98;;
70183;SDS011;57554;51.546;6.776;2023-09-19T08:30:49;14.93;;;2.75;;
70183;SDS011;57554;51.546;6.776;2023-09-19T08:33:15;10.63;;;2.22;;
70183;SDS011;57554;51.546;6.776;2023-09-19T08:35:41;14.52;;;2.13;;
70183;SDS011;57554;51.546;6.776;2023-09-19T08:38:07;14.77;;;2.25;;
70183;SDS011;57554;51.546;6.776;2023-09-19T08:40:36;12.27;;;2.53;;
70183;SDS011;57554;51.546;6.776;2023-09-19T08:45:32;11.13;;;2.40;;
70183;SDS011;57554;51.546;6.776;2023-09-19T08:50:59;12.52;;;2.05;;
70183;SDS011;57554;51.546;6.776;2023-09-19T08:53:41;18.95;;;2.95;;
70183;SDS011;57554;51.546;6.776;2023-09-19T08:56:12;13.55;;;2.28;;
70183;SDS011;57554;51.546;6.776;2023-09-19T08:58:40;11.07;;;2.25;;
70183;SDS011;57554;51.546;6.776;2023-09-19T09:03:47;14.23;;;2.40;;
70183;SDS011;57554;51.546;6.776;2023-09-19T09:06:14;18.02;;;2.55;;
70183;SDS011;57554;51.546;6.776;2023-09-19T09:08:41;10.13;;;2.08;;
70183;SDS011;57554;51.546;6.776;2023-09-19T09:11:08;14.35;;;2.63;;
70183;SDS011;57554;51.546;6.776;2023-09-19T09:13:34;9.93;;;2.33;;
70183;SDS011;57554;51.546;6.776;2023-09-19T09:16:02;11.10;;;2.17;;
70183;SDS011;57554;51.546;6.776;2023-09-19T09:18:28;11.07;;;2.45;;
70183;SDS011;57554;51.546;6.776;2023-09-19T09:20:57;12.68;;;2.22;;
70183;SDS011;57554;51.546;6.776;2023-09-19T09:23:22;14.57;;;2.60;;
70183;SDS011;57554;51.546;6.776;2023-09-19T09:25:53;11.60;;;2.10;;
70183;SDS011;57554;51.546;6.776;2023-09-19T09:28:24;16.10;;;2.40;;
70183;SDS011;57554;51.546;6.776;2023-09-19T09:30:56;12.75;;;2.20;;
70183;SDS011;57554;51.546;6.776;2023-09-19T09:33:33;15.90;;;2.60;;
70183;SDS011;57554;51.546;6.776;2023-09-19T09:35:59;14.10;;;2.05;;
70183;SDS011;57554;51.546;6.776;2023-09-19T09:38:28;11.90;;;2.53;;
70183;SDS011;57554;51.546;6.776;2023-09-19T09:41:08;13.98;;;2.72;;
70183;SDS011;57554;51.546;6.776;2023-09-19T09:43:38;11.90;;;2.13;;
70183;SDS011;57554;51.546;6.776;2023-09-19T09:46:11;10.55;;;2.42;;
70183;SDS011;57554;51.546;6.776;2023-09-19T09:48:45;12.48;;;2.25;;
70183;SDS011;57554;51.546;6.776;2023-09-19T09:51:32;14.35;;;2.42;;
70183;SDS011;57554;51.546;6.776;2023-09-19T09:54:11;12.05;;;2.08;;
70183;SDS011;57554;51.546;6.776;2023-09-19T09:56:56;12.38;;;1.95;;
70183;SDS011;57554;51.546;6.776;2023-09-19T10:02:16;12.50;;;2.00;;
70183;SDS011;57554;51.546;6.776;2023-09-19T10:04:50;13.43;;;1.98;;
70183;SDS011;57554;51.546;6.776;2023-09-19T10:07:24;11.90;;;2.30;;
70183;SDS011;57554;51.546;6.776;2023-09-19T10:09:57;9.95;;;2.67;;
70183;SDS011;57554;51.546;6.776;2023-09-19T10:12:31;7.85;;;2.08;;
70183;SDS011;57554;51.546;6.776;2023-09-19T10:14:57;12.20;;;2.25;;
70183;SDS011;57554;51.546;6.776;2023-09-19T10:17:27;12.65;;;2.58;;
70183;SDS011;57554;51.546;6.776;2023-09-19T10:19:56;12.75;;;2.40;;
70183;SDS011;57554;51.546;6.776;2023-09-19T10:22:24;12.57;;;2.28;;
70183;SDS011;57554;51.546;6.776;2023-09-19T10:24:53;14.95;;;2.45;;
70183;SDS011;57554;51.546;6.776;2023-09-19T10:27:19;12.93;;;2.25;;
70183;SDS011;57554;51.546;6.776;2023-09-19T10:29:47;14.27;;;3.00;;
70183;SDS011;57554;51.546;6.776;2023-09-19T10:32:16;14.75;;;3.05;;
70183;SDS011;57554;51.546;6.776;2023-09-19T10:34:44;10.82;;;2.65;;
70183;SDS011;57554;51.546;6.776;2023-09-19T10:37:12;11.52;;;2.55;;
70183;SDS011;57554;51.546;6.776;2023-09-19T10:39:40;11.70;;;2.53;;
70183;SDS011;57554;51.546;6.776;2023-09-19T10:42:06;11.00;;;2.50;;
70183;SDS011;57554;51.546;6.776;2023-09-19T10:44:37;11.10;;;2.28;;
70183;SDS011;57554;51.546;6.776;2023-09-19T10:47:08;11.88;;;2.30;;
70183;SDS011;57554;51.546;6.776;2023-09-19T10:49:34;10.88;;;2.28;;
70183;SDS011;57554;51.546;6.776;2023-09-19T10:52:00;11.45;;;2.17;;
70183;SDS011;57554;51.546;6.776;2023-09-19T10:54:28;9.48;;;1.90;;
70183;SDS011;57554;51.546;6.776;2023-09-19T10:56:59;11.75;;;2.15;;
70183;SDS011;57554;51.546;6.776;2023-09-19T10:59:25;9.32;;;2.20;;
70183;SDS011;57554;51.546;6.776;2023-09-19T11:01:59;14.68;;;2.20;;
70183;SDS011;57554;51.546;6.776;2023-09-19T11:04:40;10.52;;;1.77;;
70183;SDS011;57554;51.546;6.776;2023-09-19T11:07:09;7.95;;;1.70;;
70183;SDS011;57554;51.546;6.776;2023-09-19T11:21:53;9.38;;;2.25;;
70183;SDS011;57554;51.546;6.776;2023-09-19T11:26:47;12.73;;;2.25;;
70183;SDS011;57554;51.546;6.776;2023-09-19T11:29:32;8.73;;;2.17;;
70183;SDS011;57554;51.546;6.776;2023-09-19T11:31:58;8.98;;;2.53;;
70183;SDS011;57554;51.546;6.776;2023-09-19T11:40:07;11.90;;;2.38;;
70183;SDS011;57554;51.546;6.776;2023-09-19T11:42:41;8.55;;;1.77;;
70183;SDS011;57554;51.546;6.776;2023-09-19T11:48:15;12.20;;;2.30;;
70183;SDS011;57554;51.546;6.776;2023-09-19T11:50:43;7.97;;;1.98;;
70183;SDS011;57554;51.546;6.776;2023-09-19T11:53:12;13.10;;;2.58;;
70183;SDS011;57554;51.546;6.776;2023-09-19T11:55:39;11.98;;;1.98;;
70183;SDS011;57554;51.546;6.776;2023-09-19T11:58:06;11.85;;;2.30;;
70183;SDS011;57554;51.546;6.776;2023-09-19T12:00:34;19.95;;;4.63;;
70183;SDS011;57554;51.546;6.776;2023-09-19T12:03:01;18.73;;;4.85;;
70183;SDS011;57554;51.546;6.776;2023-09-19T12:05:32;16.38;;;5.05;;
70183;SDS011;57554;51.546;6.776;2023-09-19T12:07:58;19.80;;;3.83;;
70183;SDS011;57554;51.546;6.776;2023-09-19T12:10:24;23.17;;;2.83;;
70183;SDS011;57554;51.546;6.776;2023-09-19T12:12:50;11.90;;;2.67;;
70183;SDS011;57554;51.546;6.776;2023-09-19T12:15:22;11.68;;;2.20;;
70183;SDS011;57554;51.546;6.776;2023-09-19T12:17:53;9.93;;;2.53;;
70183;SDS011;57554;51.546;6.776;2023-09-19T12:20:19;11.27;;;2.08;;
70183;SDS011;57554;51.546;6.776;2023-09-19T12:22:46;10.07;;;2.05;;
70183;SDS011;57554;51.546;6.776;2023-09-19T12:25:15;12.70;;;2.03;;
70183;SDS011;57554;51.546;6.776;2023-09-19T12:27:43;9.73;;;1.85;;
70183;SDS011;57554;51.546;6.776;2023-09-19T12:30:13;9.30;;;2.10;;
70183;SDS011;57554;51.546;6.776;2023-09-19T12:32:42;12.98;;;1.75;;
70183;SDS011;57554;51.546;6.776;2023-09-19T12:35:08;9.57;;;2.03;;
70183;SDS011;57554;51.546;6.776;2023-09-19T12:37:36;14.48;;;2.55;;
70183;SDS011;57554;51.546;6.776;2023-09-19T12:40:13;9.80;;;1.83;;
70183;SDS011;57554;51.546;6.776;2023-09-19T12:42:40;7.35;;;1.75;;
70183;SDS011;57554;51.546;6.776;2023-09-19T12:45:07;7.95;;;1.63;;
70183;SDS011;57554;51.546;6.776;2023-09-19T12:47:34;11.25;;;1.90;;
70183;SDS011;57554;51.546;6.776;2023-09-19T12:52:39;9.50;;;1.67;;
70183;SDS011;57554;51.546;6.776;2023-09-19T12:55:06;8.98;;;1.83;;
70183;SDS011;57554;51.546;6.776;2023-09-19T12:57:36;11.95;;;2.47;;
70183;SDS011;57554;51.546;6.776;2023-09-19T13:00:04;15.50;;;3.35;;
70183;SDS011;57554;51.546;6.776;2023-09-19T13:02:31;10.35;;;2.20;;
70183;SDS011;57554;51.546;6.776;2023-09-19T13:04:57;14.02;;;2.35;;
70183;SDS011;57554;51.546;6.776;2023-09-19T13:07:44;7.63;;;2.25;;
70183;SDS011;57554;51.546;6.776;2023-09-19T13:10:15;11.13;;;1.80;;
70183;SDS011;57554;51.546;6.776;2023-09-19T13:12:41;10.10;;;2.00;;
70183;SDS011;57554;51.546;6.776;2023-09-19T13:15:13;7.93;;;1.45;;
70183;SDS011;57554;51.546;6.776;2023-09-19T13:17:49;5.78;;;1.63;;
70183;SDS011;57554;51.546;6.776;2023-09-19T13:20:24;6.40;;;1.33;;
70183;SDS011;57554;51.546;6.776;2023-09-19T13:22:54;4.72;;;1.38;;
70183;SDS011;57554;51.546;6.776;2023-09-19T13:25:24;11.98;;;1.83;;
70183;SDS011;57554;51.546;6.776;2023-09-19T13:27:53;10.00;;;2.00;;
70183;SDS011;57554;51.546;6.776;2023-09-19T13:30:21;9.85;;;2.20;;
70183;SDS011;57554;51.546;6.776;2023-09-19T13:32:50;11.60;;;2.17;;
70183;SDS011;57554;51.546;6.776;2023-09-19T13:35:16;11.32;;;2.05;;
70183;SDS011;57554;51.546;6.776;2023-09-19T13:37:42;8.00;;;1.30;;
70183;SDS011;57554;51.546;6.776;2023-09-19T13:40:10;9.70;;;1.92;;
70183;SDS011;57554;51.546;6.776;2023-09-19T13:42:36;13.30;;;1.98;;
70183;SDS011;57554;51.546;6.776;2023-09-19T13:45:03;8.70;;;1.25;;
70183;SDS011;57554;51.546;6.776;2023-09-19T13:47:32;6.25;;;1.20;;
70183;SDS011;57554;51.546;6.776;2023-09-19T13:49:59;8.30;;;1.10;;
70183;SDS011;57554;51.546;6.776;2023-09-19T13:52:25;6.80;;;1.27;;
70183;SDS011;57554;51.546;6.776;2023-09-19T13:54:53;7.78;;;1.35;;
70183;SDS011;57554;51.546;6.776;2023-09-19T13:57:21;8.50;;;1.65;;
70183;SDS011;57554;51.546;6.776;2023-09-19T13:59:47;6.00;;;1.17;;
70183;SDS011;57554;51.546;6.776;2023-09-19T14:02:12;5.47;;;1.20;;
70183;SDS011;57554;51.546;6.776;2023-09-19T14:04:39;7.15;;;1.70;;
70183;SDS011;57554;51.546;6.776;2023-09-19T14:07:05;7.25;;;1.63;;
70183;SDS011;57554;51.546;6.776;2023-09-19T14:09:32;7.70;;;1.45;;
70183;SDS011;57554;51.546;6.776;2023-09-19T14:11:58;5.70;;;1.42;;
70183;SDS011;57554;51.546;6.776;2023-09-19T14:14:24;6.47;;;1.30;;
70183;SDS011;57554;51.546;6.776;2023-09-19T14:16:50;7.88;;;1.27;;
70183;SDS011;57554;51.546;6.776;2023-09-19T14:19:17;7.72;;;1.55;;
70183;SDS011;57554;51.546;6.776;2023-09-19T14:21:42;7.70;;;1.20;;
70183;SDS011;57554;51.546;6.776;2023-09-19T14:24:08;13.63;;;1.27;;
70183;SDS011;57554;51.546;6.776;2023-09-19T14:26:37;6.05;;;1.30;;
70183;SDS011;57554;51.546;6.776;2023-09-19T14:29:04;15.07;;;1.60;;
70183;SDS011;57554;51.546;6.776;2023-09-19T14:31:32;6.43;;;1.50;;
70183;SDS011;57554;51.546;6.776;2023-09-19T14:33:58;6.00;;;1.23;;
70183;SDS011;57554;51.546;6.776;2023-09-19T14:36:24;8.77;;;1.60;;
70183;SDS011;57554;51.546;6.776;2023-09-19T14:38:53;6.47;;;1.10;;
70183;SDS011;57554;51.546;6.776;2023-09-19T14:41:20;10.35;;;1.70;;
70183;SDS011;57554;51.546;6.776;2023-09-19T14:43:46;5.68;;;1.23;;
70183;SDS011;57554;51.546;6.776;2023-09-19T14:46:11;6.72;;;1.10;;
70183;SDS011;57554;51.546;6.776;2023-09-19T14:48:37;7.03;;;0.90;;
70183;SDS011;57554;51.546;6.776;2023-09-19T14:51:03;4.93;;;1.02;;
70183;SDS011;57554;51.546;6.776;2023-09-19T14:53:30;5.70;;;0.85;;
70183;SDS011;57554;51.546;6.776;2023-09-19T14:55:56;8.15;;;1.33;;
70183;SDS011;57554;51.546;6.776;2023-09-19T14:58:25;8.32;;;1.20;;
70183;SDS011;57554;51.546;6.776;2023-09-19T15:01:00;5.88;;;0.93;;
70183;SDS011;57554;51.546;6.776;2023-09-19T15:03:37;9.27;;;1.10;;
70183;SDS011;57554;51.546;6.776;2023-09-19T15:06:08;7.50;;;1.23;;
70183;SDS011;57554;51.546;6.776;2023-09-19T15:08:39;7.60;;;1.25;;
70183;SDS011;57554;51.546;6.776;2023-09-19T15:11:10;5.53;;;1.15;;
70183;SDS011;57554;51.546;6.776;2023-09-19T15:13:37;6.47;;;1.20;;
70183;SDS011;57554;51.546;6.776;2023-09-19T15:16:04;4.03;;;0.80;;
70183;SDS011;57554;51.546;6.776;2023-09-19T15:18:34;6.50;;;1.27;;
70183;SDS011;57554;51.546;6.776;2023-09-19T15:21:03;6.80;;;1.27;;
70183;SDS011;57554;51.546;6.776;2023-09-19T15:23:32;5.25;;;0.85;;
70183;SDS011;57554;51.546;6.776;2023-09-19T15:25:59;4.53;;;0.73;;
70183;SDS011;57554;51.546;6.776;2023-09-19T15:28:26;8.93;;;1.40;;
70183;SDS011;57554;51.546;6.776;2023-09-19T15:33:28;6.03;;;1.05;;
70183;SDS011;57554;51.546;6.776;2023-09-19T15:36:02;6.07;;;1.10;;
70183;SDS011;57554;51.546;6.776;2023-09-19T15:38:32;8.88;;;1.40;;